Terminal Aerodrome Forecast
Issued by NWS

Home | Current Version | Previous Version | Text Only | Print | Product List | Glossary On
Versions: 1 2 3 4 5 6 7 8 9 10 11 12 13 14 15 16 17 18 19 20
000
FTUS41 KBGM 280500
TAFELM
TAF
KELM 280530Z 2806/2906 VRB03KT P6SM SCT025 BKN050
      TEMPO 2806/2807 1 1/2SM -SHSN OVC025
     FM281000 28005KT 2SM -SHSN OVC025
     FM281400 26005KT P6SM BKN060
     FM282200 25002KT P6SM SCT040 OVC100=

USA.gov is the U.S. government's official web portal to all federal, state and local government web resources and services.